Meloria — IBXK — position and weather

sailwx.info

Track history (hours):
 
Tides and Currents Weather Stations Pressure Air Temp Water Temp Dewpoint Dewpoint Depression Visibility Wind Speed Wind Dir Waves Ship Positions

Meloria

Last reported at 2016-May-02 00:32 UTC. Time now 2016-May-02 01:26 UTC.
Position N 43°35' E 010°19'.

Length 176 m; draft 9 m.

Type: Tanker. MMSI: 247171100.

Date/timePositionNaut miles runAvg speedWind from/ knotsBaromVisibWave heightAir tempDewpointWater temp
2016-May-02 00:32N 43°35' E 010°19'0 0.0
2016-May-01 23:29N 43°35' E 010°19'0 0.0
2016-May-01 22:26N 43°35' E 010°19'0 0.0
2016-May-01 21:32N 43°35' E 010°19'0 0.0
2016-May-01 20:32N 43°35' E 010°19'0 0.0
2016-May-01 19:32N 43°35' E 010°19'0 0.0
2016-May-01 18:32N 43°35' E 010°19'0 0.0
2016-May-01 17:32N 43°35' E 010°19'0 0.0
2016-May-01 16:29N 43°35' E 010°19'0 0.0
2016-May-01 15:32N 43°35' E 010°19'0 0.0
2016-May-01 14:32N 43°35' E 010°19'0 0.0
2016-May-01 13:32N 43°35' E 010°19'0 0.0
2016-May-01 12:32N 43°35' E 010°19'0 0.0
2016-May-01 11:29N 43°35' E 010°19'0 0.0
2016-May-01 10:32N 43°35' E 010°19'0 0.0
2016-May-01 09:32N 43°35' E 010°19'0 0.0
2016-May-01 08:33N 43°35' E 010°19'2 2.0
2016-May-01 07:33N 43°33' E 010°18'4 3.6
2016-May-01 06:33N 43°30' E 010°16'0 0.3
2016-May-01 05:32N 43°30' E 010°17'0 0.0
2016-May-01 03:29N 43°30' E 010°17'0 0.0
2016-May-01 02:32N 43°30' E 010°17'0 0.0
2016-May-01 01:32N 43°30' E 010°17'0 0.1
2016-May-01 00:32N 43°30' E 010°16'0 0.0
2016-Apr-30 23:29N 43°30' E 010°16'0 0.0
2016-Apr-30 22:32N 43°30' E 010°17'0 0.0
2016-Apr-30 21:32N 43°30' E 010°17'6 6.2
2016-Apr-30 20:33N 43°24' E 010°15'37612.1
2016-Apr-29 13:26N 38°24' E 015°16'1112.4
2016-Apr-29 12:33N 38°14' E 015°16'1 0.8
2016-Apr-29 11:31N 38°13' E 015°16'0 0.0
2016-Apr-29 10:31N 38°13' E 015°16'0 0.0
2016-Apr-29 09:31N 38°13' E 015°16'0 0.0
2016-Apr-29 08:31N 38°13' E 015°16'0 0.0
2016-Apr-29 07:31N 38°13' E 015°16'0 0.0
2016-Apr-29 06:31N 38°13' E 015°16'0 0.0
2016-Apr-29 05:31N 38°13' E 015°16'0 0.0
2016-Apr-28 16:24N 38°13' E 015°16'0 0.0
2016-Apr-28 15:30N 38°13' E 015°16'0 0.0
2016-Apr-28 14:30N 38°13' E 015°16'0 0.0
2016-Apr-28 13:30N 38°13' E 015°16'0 0.0
2016-Apr-28 12:30N 38°13' E 015°16'0 0.0
2016-Apr-28 11:30N 38°13' E 015°16'0 0.0
2016-Apr-28 10:30N 38°13' E 015°16'0 0.0
2016-Apr-28 09:24N 38°13' E 015°16'0 0.0
2016-Apr-28 08:30N 38°13' E 015°16'1 1.3
2016-Apr-28 07:33N 38°13' E 015°17'0 0.3
2016-Apr-28 06:28N 38°13' E 015°18'0 0.0
2016-Apr-28 05:28N 38°13' E 015°18'0 0.0
2016-Apr-28 04:28N 38°13' E 015°18'0 0.0
2016-Apr-28 02:16N 38°13' E 015°18'0 0.0
2016-Apr-28 01:22N 38°13' E 015°18'0 0.0
2016-Apr-28 00:28N 38°13' E 015°18'0 0.0
2016-Apr-27 23:22N 38°13' E 015°18'0 0.0
2016-Apr-27 22:22N 38°13' E 015°18'0 0.0
2016-Apr-27 19:28N 38°13' E 015°18'0 0.1
2016-Apr-27 18:28N 38°13' E 015°18'0 0.1
2016-Apr-27 17:28N 38°13' E 015°18'0 0.0
2016-Apr-27 16:28N 38°13' E 015°18'0 0.0
2016-Apr-27 15:28N 38°13' E 015°18'0 0.1
2016-Apr-27 14:28N 38°13' E 015°18'0 0.0
2016-Apr-27 13:16N 38°13' E 015°18'0 0.0
2016-Apr-27 12:28N 38°13' E 015°18'0 0.0
2016-Apr-27 11:28N 38°13' E 015°18'0 0.0
2016-Apr-27 10:28N 38°13' E 015°18'0 0.0
2016-Apr-27 09:28N 38°13' E 015°18'7 7.5
2016-Apr-27 08:33N 38°17' E 015°24'1312.6
2016-Apr-27 07:33N 38°19' E 015°40'8 8.2
2016-Apr-27 06:33N 38°12' E 015°37'1211.5
2016-Apr-27 05:33N 38°00' E 015°35'1311.9
2016-Apr-27 04:29N 37°51' E 015°47'  
2016-Apr-24 11:33N 45°05' E 012°39'1212.4
2016-Apr-24 10:33N 45°15' E 012°29'1110.9
2016-Apr-24 09:33N 45°21' E 012°16'6 5.8
2016-Apr-24 08:33N 45°26' E 012°14'0 0.0
2016-Apr-23 09:28N 45°26' E 012°14'2 2.4
2016-Apr-23 08:31N 45°25' E 012°16'7 7.3
2016-Apr-23 07:30N 45°19' E 012°23'2 2.1
2016-Apr-23 06:29N 45°19' E 012°26'0 0.0
2016-Apr-23 05:32N 45°19' E 012°26'0 0.0
2016-Apr-23 04:29N 45°19' E 012°26'0 0.0
2016-Apr-23 03:31N 45°19' E 012°26'0 0.1
2016-Apr-23 02:31N 45°19' E 012°26'0 0.0
2016-Apr-23 01:31N 45°19' E 012°26'0 0.0
2016-Apr-23 00:22N 45°19' E 012°26'0 0.0
2016-Apr-22 23:28N 45°19' E 012°26'0 0.0
2016-Apr-22 22:28N 45°19' E 012°26'0 0.0
2016-Apr-22 21:30N 45°19' E 012°26'0 0.0
2016-Apr-22 20:30N 45°19' E 012°26'0 0.0
2016-Apr-22 19:33N 45°19' E 012°26'0 0.0
2016-Apr-22 18:34N 45°19' E 012°26'0 0.0
2016-Apr-22 17:34N 45°19' E 012°26'0 0.1
2016-Apr-22 16:33N 45°19' E 012°26'10 9.5
2016-Apr-22 15:33N 45°14' E 012°37'1412.5
2016-Apr-22 14:26N 45°04' E 012°52'1112.0
2016-Apr-22 13:32N 44°56' E 013°02'1212.6
2016-Apr-22 12:33N 44°52' E 013°19'  
Track history (hours):
 
Tides and Currents Weather Stations Pressure Air Temp Water Temp Dewpoint Dewpoint Depression Visibility Wind Speed Wind Dir Waves Ship Positions

Meloria

Last reported at 2016-May-02 00:32 UTC. Time now 2016-May-02 01:26 UTC.
Position N 43°35' E 010°19'.

Length 176 m; draft 9 m.

Type: Tanker. MMSI: 247171100.

Date/timePositionNaut miles runAvg speedWind from/ knotsBaromVisibWave heightAir tempDewpointWater temp
2016-May-02 00:32N 43°35' E 010°19'0 0.0
2016-May-01 23:29N 43°35' E 010°19'0 0.0
2016-May-01 22:26N 43°35' E 010°19'0 0.0
2016-May-01 21:32N 43°35' E 010°19'0 0.0
2016-May-01 20:32N 43°35' E 010°19'0 0.0
2016-May-01 19:32N 43°35' E 010°19'0 0.0
2016-May-01 18:32N 43°35' E 010°19'0 0.0
2016-May-01 17:32N 43°35' E 010°19'0 0.0
2016-May-01 16:29N 43°35' E 010°19'0 0.0
2016-May-01 15:32N 43°35' E 010°19'0 0.0
2016-May-01 14:32N 43°35' E 010°19'0 0.0
2016-May-01 13:32N 43°35' E 010°19'0 0.0
2016-May-01 12:32N 43°35' E 010°19'0 0.0
2016-May-01 11:29N 43°35' E 010°19'0 0.0
2016-May-01 10:32N 43°35' E 010°19'0 0.0
2016-May-01 09:32N 43°35' E 010°19'0 0.0
2016-May-01 08:33N 43°35' E 010°19'2 2.0
2016-May-01 07:33N 43°33' E 010°18'4 3.6
2016-May-01 06:33N 43°30' E 010°16'0 0.3
2016-May-01 05:32N 43°30' E 010°17'0 0.0
2016-May-01 03:29N 43°30' E 010°17'0 0.0
2016-May-01 02:32N 43°30' E 010°17'0 0.0
2016-May-01 01:32N 43°30' E 010°17'0 0.1
2016-May-01 00:32N 43°30' E 010°16'0 0.0
2016-Apr-30 23:29N 43°30' E 010°16'0 0.0
2016-Apr-30 22:32N 43°30' E 010°17'0 0.0
2016-Apr-30 21:32N 43°30' E 010°17'6 6.2
2016-Apr-30 20:33N 43°24' E 010°15'37612.1
2016-Apr-29 13:26N 38°24' E 015°16'1112.4
2016-Apr-29 12:33N 38°14' E 015°16'1 0.8
2016-Apr-29 11:31N 38°13' E 015°16'0 0.0
2016-Apr-29 10:31N 38°13' E 015°16'0 0.0
2016-Apr-29 09:31N 38°13' E 015°16'0 0.0
2016-Apr-29 08:31N 38°13' E 015°16'0 0.0
2016-Apr-29 07:31N 38°13' E 015°16'0 0.0
2016-Apr-29 06:31N 38°13' E 015°16'0 0.0
2016-Apr-29 05:31N 38°13' E 015°16'0 0.0
2016-Apr-28 16:24N 38°13' E 015°16'0 0.0
2016-Apr-28 15:30N 38°13' E 015°16'0 0.0
2016-Apr-28 14:30N 38°13' E 015°16'0 0.0
2016-Apr-28 13:30N 38°13' E 015°16'0 0.0
2016-Apr-28 12:30N 38°13' E 015°16'0 0.0
2016-Apr-28 11:30N 38°13' E 015°16'0 0.0
2016-Apr-28 10:30N 38°13' E 015°16'0 0.0
2016-Apr-28 09:24N 38°13' E 015°16'0 0.0
2016-Apr-28 08:30N 38°13' E 015°16'1 1.3
2016-Apr-28 07:33N 38°13' E 015°17'0 0.3
2016-Apr-28 06:28N 38°13' E 015°18'0 0.0
2016-Apr-28 05:28N 38°13' E 015°18'0 0.0
2016-Apr-28 04:28N 38°13' E 015°18'0 0.0
2016-Apr-28 02:16N 38°13' E 015°18'0 0.0
2016-Apr-28 01:22N 38°13' E 015°18'0 0.0
2016-Apr-28 00:28N 38°13' E 015°18'0 0.0
2016-Apr-27 23:22N 38°13' E 015°18'0 0.0
2016-Apr-27 22:22N 38°13' E 015°18'0 0.0
2016-Apr-27 19:28N 38°13' E 015°18'0 0.1
2016-Apr-27 18:28N 38°13' E 015°18'0 0.1
2016-Apr-27 17:28N 38°13' E 015°18'0 0.0
2016-Apr-27 16:28N 38°13' E 015°18'0 0.0
2016-Apr-27 15:28N 38°13' E 015°18'0 0.1
2016-Apr-27 14:28N 38°13' E 015°18'0 0.0
2016-Apr-27 13:16N 38°13' E 015°18'0 0.0
2016-Apr-27 12:28N 38°13' E 015°18'0 0.0
2016-Apr-27 11:28N 38°13' E 015°18'0 0.0
2016-Apr-27 10:28N 38°13' E 015°18'0 0.0
2016-Apr-27 09:28N 38°13' E 015°18'7 7.5
2016-Apr-27 08:33N 38°17' E 015°24'1312.6
2016-Apr-27 07:33N 38°19' E 015°40'8 8.2
2016-Apr-27 06:33N 38°12' E 015°37'1211.5
2016-Apr-27 05:33N 38°00' E 015°35'1311.9
2016-Apr-27 04:29N 37°51' E 015°47'  
2016-Apr-24 11:33N 45°05' E 012°39'1212.4
2016-Apr-24 10:33N 45°15' E 012°29'1110.9
2016-Apr-24 09:33N 45°21' E 012°16'6 5.8
2016-Apr-24 08:33N 45°26' E 012°14'0 0.0
2016-Apr-23 09:28N 45°26' E 012°14'2 2.4
2016-Apr-23 08:31N 45°25' E 012°16'7 7.3
2016-Apr-23 07:30N 45°19' E 012°23'2 2.1
2016-Apr-23 06:29N 45°19' E 012°26'0 0.0
2016-Apr-23 05:32N 45°19' E 012°26'0 0.0
2016-Apr-23 04:29N 45°19' E 012°26'0 0.0
2016-Apr-23 03:31N 45°19' E 012°26'0 0.1
2016-Apr-23 02:31N 45°19' E 012°26'0 0.0
2016-Apr-23 01:31N 45°19' E 012°26'0 0.0
2016-Apr-23 00:22N 45°19' E 012°26'0 0.0
2016-Apr-22 23:28N 45°19' E 012°26'0 0.0
2016-Apr-22 22:28N 45°19' E 012°26'0 0.0
2016-Apr-22 21:30N 45°19' E 012°26'0 0.0
2016-Apr-22 20:30N 45°19' E 012°26'0 0.0
2016-Apr-22 19:33N 45°19' E 012°26'0 0.0
2016-Apr-22 18:34N 45°19' E 012°26'0 0.0
2016-Apr-22 17:34N 45°19' E 012°26'0 0.1
2016-Apr-22 16:33N 45°19' E 012°26'10 9.5
2016-Apr-22 15:33N 45°14' E 012°37'1412.5
2016-Apr-22 14:26N 45°04' E 012°52'1112.0
2016-Apr-22 13:32N 44°56' E 013°02'1212.6
2016-Apr-22 12:33N 44°52' E 013°19'  

Dump ship's entire track history